Time;durP1;ratioP1;P1;durP2;ratioP2;P2;SDS_P1;SDS_P2;PMS_P1;PMS_P2;Temp;Humidity;BMP_temperature;BMP_pressure;BME280_temperature;BME280_humidity;BME280_pressure;Samples;Min_cycle;Max_cycle;Signal;HPM_P1;HPM_P2
2023/10/27 00:00:55;;;;;;;0.30;0.30;;;;;;;;;;7388799;19;20368;-90
2023/10/27 00:03:22;;;;;;;0.70;0.60;;;;;;;;;;7386937;19;20360;-91
2023/10/27 00:05:48;;;;;;;0.40;0.40;;;;;;;;;;7388938;19;20364;-91
2023/10/27 00:08:16;;;;;;;0.20;0.20;;;;;;;;;;7388674;19;20354;-90
2023/10/27 00:10:42;;;;;;;0.40;0.40;;;;;;;;;;7388247;19;20365;-91
2023/10/27 00:13:09;;;;;;;0.20;0.20;;;;;;;;;;7388122;19;20830;-90
2023/10/27 00:15:36;;;;;;;0.40;0.40;;;;;;;;;;7387731;19;20332;-90
2023/10/27 00:18:03;;;;;;;0.30;0.30;;;;;;;;;;7387117;19;20670;-91
2023/10/27 00:20:30;;;;;;;0.40;0.40;;;;;;;;;;7388124;19;20934;-92
2023/10/27 00:22:57;;;;;;;0.20;0.20;;;;;;;;;;7387852;19;20428;-89
2023/10/27 00:25:24;;;;;;;2.08;0.93;;;;;;;;;;7391246;19;20336;-91
2023/10/27 00:27:51;;;;;;;0.40;0.40;;;;;;;;;;7384335;19;20423;-91
2023/10/27 00:30:18;;;;;;;0.40;0.40;;;;;;;;;;7385698;19;20356;-90
2023/10/27 00:32:46;;;;;;;2.10;1.00;;;;;;;;;;7382450;19;20340;-91
2023/10/27 00:35:13;;;;;;;0.40;0.40;;;;;;;;;;7385187;19;20442;-91
2023/10/27 00:37:41;;;;;;;0.30;0.30;;;;;;;;;;7383499;19;20344;-91
2023/10/27 00:40:08;;;;;;;0.40;0.40;;;;;;;;;;7388100;19;20379;-92
2023/10/27 00:42:34;;;;;;;1.00;0.90;;;;;;;;;;7384166;19;20911;-91
2023/10/27 00:45:02;;;;;;;0.30;0.30;;;;;;;;;;7383242;19;20359;-91
2023/10/27 00:47:30;;;;;;;0.38;0.38;;;;;;;;;;7390115;19;21024;-90
2023/10/27 00:49:57;;;;;;;0.38;0.38;;;;;;;;;;7392046;19;20345;-88
2023/10/27 00:52:25;;;;;;;0.30;0.30;;;;;;;;;;7392016;19;20432;-92
2023/10/27 00:54:54;;;;;;;0.22;0.22;;;;;;;;;;7394229;19;20348;-91
2023/10/27 00:57:22;;;;;;;0.30;0.30;;;;;;;;;;7395863;19;20347;-91
2023/10/27 00:59:53;;;;;;;0.30;0.30;;;;;;;;;;7393978;19;20348;-93
2023/10/27 01:02:21;;;;;;;0.30;0.30;;;;;;;;;;7395264;19;20715;-94
2023/10/27 01:04:49;;;;;;;0.20;0.20;;;;;;;;;;7395797;19;20693;-91
2023/10/27 01:07:16;;;;;;;0.30;0.30;;;;;;;;;;7396018;19;20357;-91
2023/10/27 01:10:11;;;;;;;0.40;0.40;;;;;;;;;;7397143;19;20336;-91
2023/10/27 01:12:46;;;;;;;0.35;0.35;;;;;;;;;;7396331;19;20438;-90
2023/10/27 01:15:14;;;;;;;0.35;0.35;;;;;;;;;;7395047;19;20666;-91
2023/10/27 01:17:41;;;;;;;0.30;0.30;;;;;;;;;;7394124;19;20360;-91
2023/10/27 01:20:09;;;;;;;0.30;0.30;;;;;;;;;;7393346;19;20925;-91
2023/10/27 01:26:26;;;;;;;0.30;0.30;;;;;;;;;;7399396;19;20314;-91
2023/10/27 01:28:53;;;;;;;0.30;0.30;;;;;;;;;;7398383;19;20359;-92
2023/10/27 01:31:21;;;;;;;0.20;0.20;;;;;;;;;;7402333;19;20363;-90
2023/10/27 01:33:47;;;;;;;0.30;0.30;;;;;;;;;;7400224;19;20360;-90
2023/10/27 01:36:14;;;;;;;0.20;0.20;;;;;;;;;;7399871;19;20451;-93
2023/10/27 01:38:42;;;;;;;0.60;0.60;;;;;;;;;;7401797;19;20404;-93
2023/10/27 01:41:09;;;;;;;0.20;0.20;;;;;;;;;;7394760;19;20403;-92
2023/10/27 01:43:36;;;;;;;0.40;0.40;;;;;;;;;;7392879;19;20368;-93
2023/10/27 01:46:03;;;;;;;0.30;0.30;;;;;;;;;;7387286;19;20449;-91
2023/10/27 01:48:31;;;;;;;0.30;0.30;;;;;;;;;;7381381;19;20979;-93
2023/10/27 01:50:58;;;;;;;0.30;0.30;;;;;;;;;;7382898;19;20345;-91
2023/10/27 01:53:25;;;;;;;0.30;0.30;;;;;;;;;;7384384;19;20482;-90
2023/10/27 01:55:51;;;;;;;0.40;0.40;;;;;;;;;;7381884;19;20362;-90
2023/10/27 01:58:18;;;;;;;0.20;0.20;;;;;;;;;;7385259;19;20345;-91
2023/10/27 02:00:46;;;;;;;0.40;0.40;;;;;;;;;;7385358;19;20423;-91
2023/10/27 02:03:12;;;;;;;0.30;0.30;;;;;;;;;;7388802;19;20368;-91
2023/10/27 02:05:43;;;;;;;0.47;0.47;;;;;;;;;;7385244;19;20320;-91
2023/10/27 02:08:10;;;;;;;0.30;0.30;;;;;;;;;;7389015;19;20359;-91
2023/10/27 02:10:37;;;;;;;0.30;0.30;;;;;;;;;;7391062;19;20801;-89
2023/10/27 02:13:03;;;;;;;0.30;0.30;;;;;;;;;;7389933;19;20356;-91
2023/10/27 02:15:30;;;;;;;0.30;0.30;;;;;;;;;;7392140;19;20356;-92
2023/10/27 02:17:57;;;;;;;0.50;0.50;;;;;;;;;;7389860;19;20939;-90
2023/10/27 02:20:24;;;;;;;0.30;0.30;;;;;;;;;;7387613;19;20348;-90
2023/10/27 02:22:51;;;;;;;0.30;0.30;;;;;;;;;;7392984;19;20345;-90
2023/10/27 02:25:17;;;;;;;0.40;0.40;;;;;;;;;;7392890;19;20344;-90
2023/10/27 02:27:44;;;;;;;0.60;0.60;;;;;;;;;;7389808;19;20333;-89
2023/10/27 02:30:11;;;;;;;0.20;0.20;;;;;;;;;;7393841;19;20348;-90
2023/10/27 02:32:38;;;;;;;0.30;0.30;;;;;;;;;;7391062;19;20434;-91
2023/10/27 02:35:05;;;;;;;0.30;0.30;;;;;;;;;;7389980;19;20360;-90
2023/10/27 02:37:32;;;;;;;0.30;0.30;;;;;;;;;;7390124;19;20898;-91
2023/10/27 02:39:58;;;;;;;0.20;0.20;;;;;;;;;;7392782;19;20375;-91
2023/10/27 02:42:25;;;;;;;0.40;0.40;;;;;;;;;;7391548;19;20348;-91
2023/10/27 02:44:52;;;;;;;0.20;0.20;;;;;;;;;;7394305;19;20367;-91
2023/10/27 02:47:19;;;;;;;0.45;0.40;;;;;;;;;;7392375;19;20551;-90
2023/10/27 02:49:46;;;;;;;0.32;0.32;;;;;;;;;;7388769;19;20344;-91
2023/10/27 02:52:13;;;;;;;0.27;0.27;;;;;;;;;;7390999;19;20336;-90
2023/10/27 02:54:40;;;;;;;0.45;0.45;;;;;;;;;;7392532;19;20353;-92
2023/10/27 02:57:07;;;;;;;0.20;0.20;;;;;;;;;;7390813;19;20681;-90
2023/10/27 02:59:34;;;;;;;0.30;0.30;;;;;;;;;;7393171;19;20367;-90
2023/10/27 03:02:01;;;;;;;0.20;0.20;;;;;;;;;;7392422;19;20364;-90
2023/10/27 03:04:28;;;;;;;0.30;0.30;;;;;;;;;;7393650;19;20900;-90
2023/10/27 03:06:55;;;;;;;0.50;0.50;;;;;;;;;;7393400;19;20388;-89
2023/10/27 03:09:22;;;;;;;0.40;0.40;;;;;;;;;;7393221;19;20353;-91
2023/10/27 03:11:48;;;;;;;0.30;0.30;;;;;;;;;;7391674;19;20465;-90
2023/10/27 03:14:16;;;;;;;0.30;0.30;;;;;;;;;;7392523;19;20348;-89
2023/10/27 03:16:43;;;;;;;0.30;0.30;;;;;;;;;;7392168;19;20368;-90
2023/10/27 03:19:10;;;;;;;0.22;0.22;;;;;;;;;;7390481;19;20447;-92
2023/10/27 03:21:37;;;;;;;0.30;0.30;;;;;;;;;;7393172;19;20897;-90
2023/10/27 03:24:05;;;;;;;0.50;0.50;;;;;;;;;;7390516;19;20336;-90
2023/10/27 03:26:31;;;;;;;0.50;0.50;;;;;;;;;;7390792;19;20372;-90
2023/10/27 03:28:58;;;;;;;0.30;0.30;;;;;;;;;;7390457;19;20416;-90
2023/10/27 03:31:25;;;;;;;0.30;0.30;;;;;;;;;;7385877;19;20356;-92
2023/10/27 03:33:52;;;;;;;0.30;0.30;;;;;;;;;;7387447;19;20332;-91
2023/10/27 03:36:19;;;;;;;0.50;0.50;;;;;;;;;;7389238;19;20368;-91
2023/10/27 03:38:46;;;;;;;0.30;0.30;;;;;;;;;;7388750;19;20344;-91
2023/10/27 03:41:12;;;;;;;0.30;0.30;;;;;;;;;;7384179;19;20888;-92
2023/10/27 03:43:39;;;;;;;0.40;0.40;;;;;;;;;;7378970;19;20907;-91
2023/10/27 03:46:07;;;;;;;0.40;0.40;;;;;;;;;;7383575;19;20336;-92
2023/10/27 03:48:34;;;;;;;0.32;0.32;;;;;;;;;;7382365;19;20331;-89
2023/10/27 03:51:05;;;;;;;0.30;0.30;;;;;;;;;;7379522;19;20341;-90
2023/10/27 03:53:32;;;;;;;0.22;0.22;;;;;;;;;;7382793;19;20342;-91
2023/10/27 03:55:59;;;;;;;0.30;0.30;;;;;;;;;;7382126;19;20352;-92
2023/10/27 03:58:26;;;;;;;0.30;0.30;;;;;;;;;;7385806;19;20348;-91
2023/10/27 04:01:12;;;;;;;0.30;0.30;;;;;;;;;;7386312;19;20827;-92
2023/10/27 04:03:39;;;;;;;0.30;0.30;;;;;;;;;;7386774;19;20361;-91
2023/10/27 04:06:06;;;;;;;0.90;0.43;;;;;;;;;;7388897;19;20401;-92
2023/10/27 04:08:32;;;;;;;0.30;0.30;;;;;;;;;;7386212;19;20439;-92
2023/10/27 04:10:59;;;;;;;0.20;0.20;;;;;;;;;;7388465;19;20348;-91
2023/10/27 04:13:26;;;;;;;0.30;0.30;;;;;;;;;;7385800;19;20400;-92
2023/10/27 04:15:53;;;;;;;0.20;0.20;;;;;;;;;;7387707;19;20389;-92
2023/10/27 04:18:21;;;;;;;0.30;0.30;;;;;;;;;;7384147;19;20829;-92
2023/10/27 04:20:48;;;;;;;1.20;0.50;;;;;;;;;;7384901;19;20381;-90
2023/10/27 04:23:14;;;;;;;0.35;0.35;;;;;;;;;;7385580;19;20340;-92
2023/10/27 04:25:43;;;;;;;0.40;0.40;;;;;;;;;;7392796;19;20328;-92
2023/10/27 04:28:10;;;;;;;0.40;0.40;;;;;;;;;;7390141;19;20365;-92
2023/10/27 04:30:37;;;;;;;0.30;0.30;;;;;;;;;;7394928;19;20428;-91
2023/10/27 04:33:05;;;;;;;0.30;0.30;;;;;;;;;;7390558;19;20368;-92
2023/10/27 04:35:32;;;;;;;0.20;0.20;;;;;;;;;;7394897;19;20336;-92
2023/10/27 04:37:59;;;;;;;0.40;0.40;;;;;;;;;;7391316;19;20352;-92
2023/10/27 04:40:28;;;;;;;0.20;0.20;;;;;;;;;;7395580;19;20353;-92
2023/10/27 04:42:58;;;;;;;0.43;0.43;;;;;;;;;;7391977;19;20681;-90
2023/10/27 04:45:25;;;;;;;0.30;0.30;;;;;;;;;;7396182;19;20348;-92
2023/10/27 04:47:53;;;;;;;0.30;0.30;;;;;;;;;;7401019;19;20439;-92
2023/10/27 04:50:21;;;;;;;0.30;0.30;;;;;;;;;;7395284;19;20450;-91
2023/10/27 04:52:48;;;;;;;0.30;0.30;;;;;;;;;;7391831;19;20365;-90
2023/10/27 04:55:15;;;;;;;0.30;0.30;;;;;;;;;;7388726;19;20344;-90
2023/10/27 04:57:43;;;;;;;0.40;0.40;;;;;;;;;;7392912;19;20356;-91
2023/10/27 05:00:11;;;;;;;0.20;0.20;;;;;;;;;;7391108;19;20352;-92
2023/10/27 05:02:38;;;;;;;0.30;0.30;;;;;;;;;;7388297;19;20348;-92
2023/10/27 05:05:05;;;;;;;0.20;0.20;;;;;;;;;;7392975;19;20348;-92
2023/10/27 05:07:39;;;;;;;0.30;0.30;;;;;;;;;;7394102;19;20366;-90
2023/10/27 05:10:07;;;;;;;0.25;0.25;;;;;;;;;;7391011;19;20348;-91
2023/10/27 05:12:38;;;;;;;0.32;0.32;;;;;;;;;;7391896;19;20349;-92
2023/10/27 05:15:07;;;;;;;0.22;0.22;;;;;;;;;;7396443;19;20333;-92
2023/10/27 05:17:35;;;;;;;0.40;0.40;;;;;;;;;;7400216;19;20368;-90
2023/10/27 05:20:03;;;;;;;0.30;0.30;;;;;;;;;;7399940;19;20371;-94
2023/10/27 05:22:33;;;;;;;0.30;0.30;;;;;;;;;;7398318;19;20352;-93
2023/10/27 05:26:07;;;;;;;0.30;0.30;;;;;;;;;;7397261;19;20348;-89
2023/10/27 05:28:54;;;;;;;0.32;0.32;;;;;;;;;;7402486;19;20344;-92
2023/10/27 05:31:35;;;;;;;0.20;0.20;;;;;;;;;;7400596;19;20375;-92
2023/10/27 05:34:01;;;;;;;0.90;0.80;;;;;;;;;;7396166;19;20352;-92
2023/10/27 05:36:28;;;;;;;0.20;0.20;;;;;;;;;;7399125;19;20364;-90
2023/10/27 05:38:57;;;;;;;0.30;0.30;;;;;;;;;;7397259;19;20412;-92
2023/10/27 05:41:24;;;;;;;0.20;0.20;;;;;;;;;;7399363;19;20419;-91
2023/10/27 05:43:54;;;;;;;0.32;0.32;;;;;;;;;;7399650;19;20359;-91
2023/10/27 05:46:21;;;;;;;0.30;0.30;;;;;;;;;;7394234;19;20375;-93
2023/10/27 05:48:49;;;;;;;0.30;0.30;;;;;;;;;;7395416;19;20356;-93
2023/10/27 05:51:17;;;;;;;0.30;0.30;;;;;;;;;;7392719;19;20351;-93
2023/10/27 05:53:45;;;;;;;0.30;0.30;;;;;;;;;;7398643;19;20360;-94
2023/10/27 05:56:21;;;;;;;0.40;0.40;;;;;;;;;;7395059;19;20711;-93
2023/10/27 05:58:48;;;;;;;0.30;0.30;;;;;;;;;;7388541;19;20402;-94
2023/10/27 06:01:15;;;;;;;0.50;0.50;;;;;;;;;;7397563;19;20388;-94
2023/10/27 06:03:42;;;;;;;0.20;0.20;;;;;;;;;;7393620;19;20356;-93
2023/10/27 06:06:08;;;;;;;0.30;0.30;;;;;;;;;;7392019;19;20352;-93
2023/10/27 06:08:40;;;;;;;0.20;0.20;;;;;;;;;;7399762;19;20360;-92
2023/10/27 06:11:11;;;;;;;0.40;0.40;;;;;;;;;;7398021;19;20348;-93
2023/10/27 06:13:53;;;;;;;0.20;0.20;;;;;;;;;;7396401;19;20351;-93
2023/10/27 06:16:24;;;;;;;0.35;0.35;;;;;;;;;;7411155;19;20356;-92
2023/10/27 06:18:54;;;;;;;0.20;0.20;;;;;;;;;;7418613;19;20357;-94
2023/10/27 06:21:24;;;;;;;0.40;0.40;;;;;;;;;;7423545;19;20372;-93
2023/10/27 06:23:54;;;;;;;0.20;0.20;;;;;;;;;;7419211;19;20399;-95
2023/10/27 06:26:31;;;;;;;0.30;0.30;;;;;;;;;;7407461;19;20348;-93
2023/10/27 06:28:58;;;;;;;0.30;0.30;;;;;;;;;;7400670;19;20443;-92
2023/10/27 06:31:33;;;;;;;0.30;0.30;;;;;;;;;;7399162;19;20360;-93
2023/10/27 06:34:01;;;;;;;0.30;0.30;;;;;;;;;;7409096;19;20355;-94
2023/10/27 06:36:32;;;;;;;0.20;0.20;;;;;;;;;;7405722;19;20694;-92
2023/10/27 06:39:02;;;;;;;0.30;0.30;;;;;;;;;;7407693;19;20351;-95
2023/10/27 06:41:29;;;;;;;0.20;0.20;;;;;;;;;;7424210;19;20349;-95
2023/10/27 06:43:56;;;;;;;0.30;0.30;;;;;;;;;;7403991;19;20885;-94
2023/10/27 06:46:24;;;;;;;0.20;0.20;;;;;;;;;;7401800;19;20370;-93
2023/10/27 06:48:51;;;;;;;0.40;0.40;;;;;;;;;;7395485;19;20344;-92
2023/10/27 06:51:22;;;;;;;0.27;0.27;;;;;;;;;;7401061;19;20370;-92
2023/10/27 06:53:50;;;;;;;0.30;0.30;;;;;;;;;;7403980;19;20374;-93
2023/10/27 06:56:16;;;;;;;0.30;0.30;;;;;;;;;;7400104;19;20439;-93
2023/10/27 06:58:44;;;;;;;0.20;0.20;;;;;;;;;;7402026;19;20349;-94
2023/10/27 07:01:13;;;;;;;0.30;0.30;;;;;;;;;;7406624;19;20470;-95
2023/10/27 07:03:45;;;;;;;0.30;0.30;;;;;;;;;;7402026;19;20348;-94
2023/10/27 07:06:13;;;;;;;0.30;0.30;;;;;;;;;;7404180;19;20428;-91
2023/10/27 07:08:48;;;;;;;0.30;0.30;;;;;;;;;;7407661;19;20372;-94
2023/10/27 07:11:18;;;;;;;0.20;0.20;;;;;;;;;;7408013;19;20364;-93
2023/10/27 07:13:45;;;;;;;0.30;0.30;;;;;;;;;;7398165;19;20369;-94
2023/10/27 07:16:12;;;;;;;0.20;0.20;;;;;;;;;;7391881;19;20364;-93
2023/10/27 07:18:39;;;;;;;0.30;0.30;;;;;;;;;;7394433;19;20360;-93
2023/10/27 07:21:07;;;;;;;0.25;0.25;;;;;;;;;;7398414;19;20352;-92
2023/10/27 07:23:39;;;;;;;0.30;0.30;;;;;;;;;;7395213;19;20369;-93
2023/10/27 07:26:15;;;;;;;0.30;0.30;;;;;;;;;;7394880;19;20336;-92
2023/10/27 07:28:43;;;;;;;0.30;0.30;;;;;;;;;;7393149;19;20441;-90
2023/10/27 07:31:10;;;;;;;0.30;0.30;;;;;;;;;;7392223;19;20376;-93
2023/10/27 07:33:39;;;;;;;0.20;0.20;;;;;;;;;;7395394;19;20339;-93
2023/10/27 07:36:07;;;;;;;0.30;0.30;;;;;;;;;;7391637;19;20696;-88
2023/10/27 07:38:34;;;;;;;0.30;0.30;;;;;;;;;;7394754;19;20544;-91
2023/10/27 07:41:01;;;;;;;0.38;0.38;;;;;;;;;;7391123;19;20348;-90
2023/10/27 07:43:28;;;;;;;0.30;0.30;;;;;;;;;;7393030;19;20340;-91
2023/10/27 07:45:55;;;;;;;0.30;0.30;;;;;;;;;;7391184;19;20341;-93
2023/10/27 07:48:22;;;;;;;0.38;0.38;;;;;;;;;;7391561;19;20364;-90
2023/10/27 07:50:49;;;;;;;0.30;0.30;;;;;;;;;;7388745;19;20349;-91
2023/10/27 07:53:15;;;;;;;0.35;0.35;;;;;;;;;;7392638;19;20349;-89
2023/10/27 07:55:42;;;;;;;0.30;0.30;;;;;;;;;;7393342;19;20353;-92
2023/10/27 07:58:10;;;;;;;0.20;0.20;;;;;;;;;;7391490;19;20329;-91
2023/10/27 08:00:43;;;;;;;0.30;0.30;;;;;;;;;;7393067;19;20335;-90
2023/10/27 08:03:17;;;;;;;0.20;0.20;;;;;;;;;;7394029;19;20404;-92
2023/10/27 08:05:45;;;;;;;0.40;0.40;;;;;;;;;;7393820;19;20780;-91
2023/10/27 08:08:13;;;;;;;0.20;0.20;;;;;;;;;;7392495;19;20390;-90
2023/10/27 08:10:44;;;;;;;0.30;0.30;;;;;;;;;;7393762;19;20357;-91
2023/10/27 08:13:11;;;;;;;0.40;0.40;;;;;;;;;;7394733;19;20349;-90
2023/10/27 08:15:43;;;;;;;0.30;0.30;;;;;;;;;;7394185;19;20340;-88
2023/10/27 08:18:12;;;;;;;0.30;0.30;;;;;;;;;;7395222;19;20360;-92
2023/10/27 08:20:40;;;;;;;0.30;0.30;;;;;;;;;;7393575;19;20413;-90
2023/10/27 08:23:06;;;;;;;0.30;0.30;;;;;;;;;;7389276;19;20353;-93
2023/10/27 08:25:34;;;;;;;0.30;0.30;;;;;;;;;;7394389;19;20364;-89
2023/10/27 08:28:01;;;;;;;0.30;0.30;;;;;;;;;;7396181;19;20368;-92
2023/10/27 08:30:28;;;;;;;0.20;0.20;;;;;;;;;;7392925;19;20375;-87
2023/10/27 08:32:55;;;;;;;0.30;0.30;;;;;;;;;;7390797;19;20693;-91
2023/10/27 08:35:23;;;;;;;0.20;0.20;;;;;;;;;;7392528;19;20349;-85
2023/10/27 08:37:50;;;;;;;1.20;0.65;;;;;;;;;;7387400;19;20328;-86
2023/10/27 08:40:17;;;;;;;0.20;0.20;;;;;;;;;;7387930;19;20360;-84
2023/10/27 08:42:49;;;;;;;0.35;0.35;;;;;;;;;;7387156;19;20361;-89
2023/10/27 08:45:16;;;;;;;0.38;0.38;;;;;;;;;;7385601;19;20420;-92
2023/10/27 08:47:43;;;;;;;0.30;0.30;;;;;;;;;;7387786;19;20699;-89
2023/10/27 08:50:10;;;;;;;0.20;0.20;;;;;;;;;;7388933;19;20728;-91
2023/10/27 08:52:36;;;;;;;0.50;0.50;;;;;;;;;;7387859;19;20356;-90
2023/10/27 08:55:08;;;;;;;0.22;0.22;;;;;;;;;;7388894;19;20344;-88
2023/10/27 08:57:35;;;;;;;0.70;0.70;;;;;;;;;;7389503;19;20356;-91
2023/10/27 09:00:05;;;;;;;0.30;0.30;;;;;;;;;;7391443;19;20365;-90
2023/10/27 09:02:33;;;;;;;0.30;0.30;;;;;;;;;;7390334;19;20772;-89
2023/10/27 09:05:08;;;;;;;0.20;0.20;;;;;;;;;;7389054;19;20399;-90
2023/10/27 09:07:36;;;;;;;0.30;0.30;;;;;;;;;;7393956;19;20348;-87
2023/10/27 09:10:08;;;;;;;0.40;0.40;;;;;;;;;;7393639;19;20348;-89
2023/10/27 09:12:38;;;;;;;0.30;0.30;;;;;;;;;;7395139;19;20360;-90
2023/10/27 09:15:07;;;;;;;0.40;0.40;;;;;;;;;;7399849;19;20360;-90
2023/10/27 09:17:55;;;;;;;1.40;0.90;;;;;;;;;;7397233;19;20488;-91
2023/10/27 09:20:24;;;;;;;0.30;0.30;;;;;;;;;;7393972;19;20967;-88
2023/10/27 09:22:58;;;;;;;0.30;0.30;;;;;;;;;;7395179;19;20356;-89
2023/10/27 09:25:29;;;;;;;0.20;0.20;;;;;;;;;;7398419;19;20356;-89
2023/10/27 09:28:01;;;;;;;0.38;0.38;;;;;;;;;;7397516;19;20339;-91
2023/10/27 09:30:37;;;;;;;0.20;0.20;;;;;;;;;;7396373;19;20683;-88
2023/10/27 09:33:16;;;;;;;0.35;0.35;;;;;;;;;;7397626;19;20393;-89
2023/10/27 09:35:47;;;;;;;0.40;0.40;;;;;;;;;;7399191;19;20353;-90
2023/10/27 09:38:15;;;;;;;0.20;0.20;;;;;;;;;;7397535;19;20394;-91
2023/10/27 09:40:43;;;;;;;0.52;0.45;;;;;;;;;;7401813;19;20357;-89
2023/10/27 09:43:15;;;;;;;0.32;0.32;;;;;;;;;;7401457;19;20325;-90
2023/10/27 09:45:53;;;;;;;0.30;0.30;;;;;;;;;;7405242;19;20344;-91
2023/10/27 09:48:27;;;;;;;0.40;0.40;;;;;;;;;;7399890;19;20357;-89
2023/10/27 09:51:07;;;;;;;0.40;0.40;;;;;;;;;;7401034;19;20341;-89
2023/10/27 09:53:34;;;;;;;0.30;0.30;;;;;;;;;;7399657;19;20361;-90
2023/10/27 09:56:03;;;;;;;0.30;0.30;;;;;;;;;;7398686;19;20352;-91
2023/10/27 09:58:31;;;;;;;0.60;0.60;;;;;;;;;;7400361;19;20669;-89
2023/10/27 10:01:00;;;;;;;0.40;0.40;;;;;;;;;;7398551;19;20695;-88
2023/10/27 10:03:27;;;;;;;0.20;0.20;;;;;;;;;;7398216;19;20880;-89
2023/10/27 10:06:18;;;;;;;0.40;0.40;;;;;;;;;;7400037;19;20352;-89
2023/10/27 10:09:11;;;;;;;0.47;0.47;;;;;;;;;;7398273;19;20356;-90
2023/10/27 10:11:47;;;;;;;0.20;0.20;;;;;;;;;;7398865;19;20336;-90
2023/10/27 10:14:36;;;;;;;0.30;0.30;;;;;;;;;;7399289;19;20441;-91
2023/10/27 10:17:04;;;;;;;0.40;0.40;;;;;;;;;;7396204;19;20349;-89
2023/10/27 10:19:47;;;;;;;0.22;0.22;;;;;;;;;;7395580;19;20361;-88
2023/10/27 10:22:42;;;;;;;0.50;0.50;;;;;;;;;;7398161;19;20333;-89
2023/10/27 10:25:18;;;;;;;0.30;0.30;;;;;;;;;;7398995;19;20339;-89
2023/10/27 10:28:07;;;;;;;0.30;0.30;;;;;;;;;;7398149;19;20332;-89
2023/10/27 10:30:40;;;;;;;0.20;0.20;;;;;;;;;;7399708;19;20363;-90
2023/10/27 10:33:14;;;;;;;0.60;0.60;;;;;;;;;;7397601;19;20352;-89
2023/10/27 10:35:42;;;;;;;0.45;0.45;;;;;;;;;;7400110;19;20339;-87
2023/10/27 10:38:22;;;;;;;2.40;0.50;;;;;;;;;;7395062;19;20352;-91
2023/10/27 10:41:02;;;;;;;0.20;0.20;;;;;;;;;;7395426;19;20368;-88
2023/10/27 10:43:34;;;;;;;0.27;0.27;;;;;;;;;;7397914;19;20351;-88
2023/10/27 10:46:05;;;;;;;0.43;0.43;;;;;;;;;;7398825;19;20709;-90
2023/10/27 10:48:35;;;;;;;0.30;0.30;;;;;;;;;;7398338;19;20356;-88
2023/10/27 10:51:04;;;;;;;0.30;0.30;;;;;;;;;;7401596;19;20332;-90
2023/10/27 10:53:31;;;;;;;0.40;0.40;;;;;;;;;;7398833;19;20345;-88
2023/10/27 10:56:00;;;;;;;0.80;0.40;;;;;;;;;;7401377;19;20445;-88
2023/10/27 10:58:28;;;;;;;0.50;0.50;;;;;;;;;;7400120;19;20357;-88
2023/10/27 11:00:56;;;;;;;0.30;0.30;;;;;;;;;;7396299;19;20353;-90
2023/10/27 11:03:27;;;;;;;0.30;0.30;;;;;;;;;;7396965;19;20360;-88
2023/10/27 11:05:59;;;;;;;0.50;0.50;;;;;;;;;;7399809;19;20356;-89
2023/10/27 11:08:28;;;;;;;1.02;0.40;;;;;;;;;;7395016;19;20332;-90
2023/10/27 11:10:59;;;;;;;0.30;0.30;;;;;;;;;;7396073;19;20344;-88
2023/10/27 11:13:26;;;;;;;0.20;0.20;;;;;;;;;;7394915;19;20354;-90
2023/10/27 11:15:55;;;;;;;0.40;0.40;;;;;;;;;;7397820;19;20414;-89
2023/10/27 11:18:26;;;;;;;0.30;0.30;;;;;;;;;;7397812;19;20385;-89
2023/10/27 11:20:53;;;;;;;0.20;0.20;;;;;;;;;;7401153;19;20405;-90
2023/10/27 11:23:26;;;;;;;0.32;0.32;;;;;;;;;;7403248;19;20364;-89
2023/10/27 11:26:04;;;;;;;0.30;0.30;;;;;;;;;;7401149;19;20363;-89
2023/10/27 11:28:36;;;;;;;0.40;0.40;;;;;;;;;;7401943;19;20412;-89
2023/10/27 11:31:22;;;;;;;2.50;0.50;;;;;;;;;;7391924;19;20349;-89
2023/10/27 11:34:08;;;;;;;0.38;0.38;;;;;;;;;;7394498;19;20367;-89
2023/10/27 11:36:43;;;;;;;0.30;0.30;;;;;;;;;;7394224;19;20348;-90
2023/10/27 11:39:13;;;;;;;0.30;0.30;;;;;;;;;;7393240;19;20355;-90
2023/10/27 11:41:46;;;;;;;0.20;0.20;;;;;;;;;;7393967;19;20351;-89
2023/10/27 11:44:13;;;;;;;2.40;0.63;;;;;;;;;;7394496;19;20390;-90
2023/10/27 11:46:46;;;;;;;0.30;0.30;;;;;;;;;;7395195;19;20501;-90
2023/10/27 11:49:14;;;;;;;0.47;0.47;;;;;;;;;;7397946;19;20692;-91
2023/10/27 11:51:43;;;;;;;0.40;0.40;;;;;;;;;;7400163;19;20352;-90
2023/10/27 11:54:10;;;;;;;0.40;0.40;;;;;;;;;;7398043;19;20424;-90
2023/10/27 11:56:37;;;;;;;0.25;0.25;;;;;;;;;;7397421;19;20340;-90
2023/10/27 11:59:05;;;;;;;0.60;0.60;;;;;;;;;;7395279;19;20410;-91
2023/10/27 12:01:32;;;;;;;0.30;0.30;;;;;;;;;;7394338;19;20372;-91
2023/10/27 12:04:00;;;;;;;0.30;0.30;;;;;;;;;;7388374;19;20390;-90
2023/10/27 12:06:27;;;;;;;0.70;0.70;;;;;;;;;;7394371;19;20366;-90
2023/10/27 12:08:54;;;;;;;0.23;0.23;;;;;;;;;;7394559;19;20380;-92
2023/10/27 12:11:21;;;;;;;0.40;0.40;;;;;;;;;;7395204;19;20396;-92
2023/10/27 12:13:48;;;;;;;0.40;0.40;;;;;;;;;;7399268;19;20385;-90
2023/10/27 12:16:16;;;;;;;0.40;0.40;;;;;;;;;;7397276;19;20363;-89
2023/10/27 12:18:45;;;;;;;0.20;0.20;;;;;;;;;;7394776;19;20333;-90
2023/10/27 12:21:12;;;;;;;0.30;0.30;;;;;;;;;;7394704;19;20368;-90
2023/10/27 12:23:39;;;;;;;0.40;0.40;;;;;;;;;;7395259;19;20948;-90
2023/10/27 12:26:07;;;;;;;0.30;0.30;;;;;;;;;;7399379;19;20364;-89
2023/10/27 12:28:34;;;;;;;0.30;0.30;;;;;;;;;;7399956;19;20790;-90
2023/10/27 12:31:02;;;;;;;0.40;0.40;;;;;;;;;;7399618;19;20357;-91
2023/10/27 12:33:29;;;;;;;0.40;0.40;;;;;;;;;;7398196;19;20344;-91
2023/10/27 12:35:56;;;;;;;0.30;0.30;;;;;;;;;;7393364;19;20719;-91
2023/10/27 12:38:23;;;;;;;0.40;0.40;;;;;;;;;;7392152;19;20712;-90
2023/10/27 12:40:50;;;;;;;0.43;0.43;;;;;;;;;;7388044;19;20738;-91
2023/10/27 12:43:17;;;;;;;1.40;0.80;;;;;;;;;;7395906;19;20347;-93
2023/10/27 12:45:43;;;;;;;0.32;0.32;;;;;;;;;;7398536;19;20718;-92
2023/10/27 12:48:13;;;;;;;7.00;0.60;;;;;;;;;;7394049;19;20344;-89
2023/10/27 12:50:40;;;;;;;0.20;0.20;;;;;;;;;;7398171;19;20423;-91
2023/10/27 12:53:08;;;;;;;0.40;0.40;;;;;;;;;;7397852;19;20365;-90
2023/10/27 12:55:35;;;;;;;0.30;0.30;;;;;;;;;;7395484;19;20336;-89
2023/10/27 12:58:08;;;;;;;0.20;0.20;;;;;;;;;;7394037;19;20371;-90
2023/10/27 13:00:37;;;;;;;0.30;0.30;;;;;;;;;;7394524;19;20333;-91
2023/10/27 13:03:04;;;;;;;0.20;0.20;;;;;;;;;;7393799;19;20968;-90
2023/10/27 13:05:31;;;;;;;0.30;0.30;;;;;;;;;;7399336;19;20367;-89
2023/10/27 13:07:58;;;;;;;0.40;0.40;;;;;;;;;;7394626;19;20351;-89
2023/10/27 13:10:26;;;;;;;0.30;0.30;;;;;;;;;;7395417;19;20377;-90
2023/10/27 13:12:56;;;;;;;0.30;0.30;;;;;;;;;;7391765;19;20724;-89
2023/10/27 13:15:23;;;;;;;0.32;0.32;;;;;;;;;;7399454;19;20180;-91
2023/10/27 13:17:50;;;;;;;0.30;0.30;;;;;;;;;;7399024;19;20140;-89
2023/10/27 13:20:18;;;;;;;0.40;0.40;;;;;;;;;;7394963;19;20188;-91
2023/10/27 13:22:47;;;;;;;0.30;0.30;;;;;;;;;;7396133;19;20562;-90
2023/10/27 13:25:15;;;;;;;0.95;0.40;;;;;;;;;;7395748;19;20355;-88
2023/10/27 13:27:43;;;;;;;0.50;0.50;;;;;;;;;;7399368;19;20469;-88
2023/10/27 13:30:10;;;;;;;0.38;0.38;;;;;;;;;;7399550;19;20370;-90
2023/10/27 13:32:36;;;;;;;0.40;0.40;;;;;;;;;;7397661;19;20337;-89
2023/10/27 13:35:06;;;;;;;0.32;0.32;;;;;;;;;;7398376;19;20359;-90
2023/10/27 13:37:33;;;;;;;0.40;0.40;;;;;;;;;;7398148;19;20440;-92
2023/10/27 13:40:00;;;;;;;0.40;0.40;;;;;;;;;;7398689;19;20367;-88
2023/10/27 13:42:26;;;;;;;0.30;0.30;;;;;;;;;;7394699;19;20896;-89
2023/10/27 13:44:53;;;;;;;0.20;0.20;;;;;;;;;;7395771;19;20349;-90
2023/10/27 13:47:21;;;;;;;0.30;0.30;;;;;;;;;;7397473;19;20751;-91
2023/10/27 13:49:55;;;;;;;0.30;0.30;;;;;;;;;;7397680;19;21120;-92
2023/10/27 13:52:22;;;;;;;0.30;0.30;;;;;;;;;;7397489;19;20400;-90
2023/10/27 13:54:51;;;;;;;0.60;0.60;;;;;;;;;;7395712;19;20686;-90
2023/10/27 13:57:19;;;;;;;0.50;0.50;;;;;;;;;;7391685;19;20977;-89
2023/10/27 13:59:47;;;;;;;0.30;0.30;;;;;;;;;;7389243;19;20360;-89
2023/10/27 14:02:13;;;;;;;0.30;0.30;;;;;;;;;;7391589;19;20351;-88
2023/10/27 14:04:41;;;;;;;0.20;0.20;;;;;;;;;;7386338;19;20362;-89
2023/10/27 14:07:09;;;;;;;0.30;0.30;;;;;;;;;;7385077;19;20428;-89
2023/10/27 14:09:36;;;;;;;0.60;0.60;;;;;;;;;;7387052;19;20365;-89
2023/10/27 14:12:04;;;;;;;0.30;0.30;;;;;;;;;;7385566;19;20348;-90
2023/10/27 14:14:31;;;;;;;0.30;0.30;;;;;;;;;;7388492;19;20341;-91
2023/10/27 14:16:59;;;;;;;0.50;0.50;;;;;;;;;;7392152;19;20373;-90
2023/10/27 14:19:28;;;;;;;0.30;0.30;;;;;;;;;;7394589;19;20403;-90
2023/10/27 14:21:56;;;;;;;0.40;0.40;;;;;;;;;;7391485;19;20348;-91
2023/10/27 14:24:23;;;;;;;0.30;0.30;;;;;;;;;;7389652;19;20349;-90
2023/10/27 14:26:51;;;;;;;0.30;0.30;;;;;;;;;;7392143;19;20700;-88
2023/10/27 14:29:21;;;;;;;0.25;0.25;;;;;;;;;;7393709;19;20777;-89
2023/10/27 14:31:48;;;;;;;0.40;0.40;;;;;;;;;;7391083;19;20772;-91
2023/10/27 14:34:14;;;;;;;0.30;0.30;;;;;;;;;;7392620;19;20352;-89
2023/10/27 14:36:43;;;;;;;0.50;0.50;;;;;;;;;;7389734;19;20944;-91
2023/10/27 14:39:13;;;;;;;0.40;0.40;;;;;;;;;;7394953;19;20735;-90
2023/10/27 14:41:40;;;;;;;5.30;0.57;;;;;;;;;;7391291;19;20432;-89
2023/10/27 14:44:07;;;;;;;10.90;0.70;;;;;;;;;;7390963;19;20360;-91
2023/10/27 14:46:34;;;;;;;0.30;0.30;;;;;;;;;;7392447;19;20356;-90
2023/10/27 14:49:01;;;;;;;0.20;0.20;;;;;;;;;;7391538;19;20363;-90
2023/10/27 14:51:28;;;;;;;0.30;0.30;;;;;;;;;;7392351;19;20915;-91
2023/10/27 14:53:55;;;;;;;0.40;0.40;;;;;;;;;;7392733;19;20381;-88
2023/10/27 14:56:22;;;;;;;0.30;0.30;;;;;;;;;;7394278;19;20352;-89
2023/10/27 14:58:52;;;;;;;0.30;0.30;;;;;;;;;;7395936;19;20368;-91